Timeline UpdatesTrip UpdatesNews PostsPvt Posts♥♥Travel TipsAdmin PostsConv PostsFollowed PostsChat RequestsBlog PostsPNR Posts

Disclaimer
Search
 
 
Wed Nov 26, 2014 03:33:41 ISTHomeTrainsΣChainsAtlasPNRForumGalleryNewsFAQTripsMembersLoginFeedback
No Recent News for this Train
Other Trains in the News **new
Latest...
.
Wed Oct 10, 2012 (01:42PM)
⇐ Return Journey: Train# 59356

59355/Ratlam Mathura Passenger (UnReserved)

Time-Table HAS CHANGED.
Sep 04 2014 (5:05PM)
Change Departure Station:
Change Arrival Station:
Post a Train Travel TipPost a Train Travel Tip **new
Post a Comment/Question/Picture/VideoPost a Comment/Question/Picture/Video
Pantry/Catering
✕ NO Pantry Car
✕ NO Catering
RSA - Rake Sharing
Rake/Coach Composition
Loco
WAM 4 (BRC)
News    PNR    Forum    Time-Table    Availability    Fare Chart    Map    Arr/Dep History    Trips    Gallery    ΣChains    X/O    Timeline    
Travel Time: 12h 59m    54 halts    Distance: 506 km    Avg Speed: 38 km/hr
Type: Passenger
Zone: WR/Western
Departs @ 07:00 (Avg 12m late)
Platform# 6
SMTWTFS
Ratlam Junction/RTM 
Arrives @ 19:59 (Avg 36m late)
Platform# ???
SMTWTFS
Dumariya/DY 

54 halts. 65 intermediate Stations between Ratlam Junction and Dumariya

Show ALL intermediate Stations  Show Old Time-Table

#TrkCodeStation NameX/OArrivesAvgDepartsAvgHaltPFDay#KmSpeedElevZoneAddress
1/==/RTMRatlam Junction (7)»  -07:00+12610.049495mWRRatlam 457001, Madhya Pradesh
2/==/BODBangrodX  07:12+2007:13+251m--19.855484mWRRatlam, Madhya Pradesh
3/==/RNHRunkheraX  07:21+2207:22+231m--117.157478mWRUjjain, Madhya Pradesh
4/==/KUHKhachrod (2)X  07:33+2607:35+302m--127.616497mWRUjjain, Madhya Pradesh
5/==/BRNABerawanyaO  07:56+1507:58+252m--133.312496mWRUjjain, Madhya Pradesh
6/==/NADNagda Junction (4)X  08:40+008:45+35m--141.470468mWRNagda, Madhya Pradesh
7/==/RLKRohal Khurd  08:54+708:55+91m--151.944499mWCRNagda, Madhya Pradesh
8/==/MEPMahidpur Road  09:04+709:05+81m--158.571493mWCRGogapur, Madhya Pradesh
9/==/LNRLuni Richha  09:14+909:15+101m--169.188471mWCRAlote, Madhya Pradesh
10/==/VMAVikramgarh Alot (2)X  09:24+1109:25+121m2182.451443mWCRKota Division, Madhya Pradesh
11/==/THURThuriaX  09:34+1209:35+141m--190.060430mWCRMDR 45, Madhya Pradesh
12/==/TLZTalavli (2)  09:44+909:45+91m--199.035442mWCRMDR 45, Madhya Pradesh
13/==/CMUChau Mahla (3)X  09:54+1109:55+121m21104.265426mWCRJhalawar, Rajasthan
14/==/NKHNathukheri  10:04+1210:05+121m--1113.938439mWCRMDR 45, Madhya Pradesh
15/==/SVASuwasra (2)  10:14+1010:15+131m--1119.668450mWCRSuwasra, Madhya Pradesh
16/==/HNUHanspuraXO  10:21+1310:22+141m--1126.333476mWCRMandsaur, Madhya Pradesh
17/==/SGZShamgarh (3)O  10:34+1110:35+311m--1133.059463mWCRMandsaur, Madhya Pradesh
18/==/GOHGaroth (2)  10:46+3110:47+331m21143.865441mWCRMadhya Pradesh 458880, Madhya Pradesh
19/==/KRLSKurlas  10:56+3410:57+351m--1153.635417mWCRGarot, Madhya Pradesh
20/==/BWMBhawani Mandi (3)  11:19+2311:20+291m--1166.567384mWCRBhawani Mandi, Madhya Pradesh
21/==/DKRADhuankheriX  11:29+3111:30+341m--1176.642358mWCRBhawani Mandi, Madhya Pradesh
22/==/JHWJhalawar Road (3)  11:39+3211:40+381m--1183.053361mWCRJhalawar City, Rajasthan
23/==/RMARamganj Mandi Junction (3)X  11:54+3611:55+471m--1195.339358mWCRRamganj Mandi, Rajasthan
24/==/MKXMorak (2)X  12:09+3912:10+401m--1204.439337mWCRMorak, Rajasthan
25/==/KIWKanwalpura  12:19+4112:20+421m--1210.259324mWCRNH 12, Rajasthan
26/==/DARADara  12:29+4112:30+431m--1219.155354mWCRDara, Rajasthan
27/==/RDTRavtha Road  12:44+4012:45+431m--1231.951366mWCRNational Highway 12, Rajasthan
28/==/ALNIAlniyaX  12:59+4313:00+461m--1243.846334mWCRNH 12, Rajasthan
29/==/DDVDadhdeviXO  13:09+4213:10+521m--1250.629308mWCRNH 12, Rajasthan
30/==/DKNTDakaniya Talav (2)X  13:24+3413:25+361m11257.312278mWCRKota, Rajasthan
31/==/KOTAKota Junction (5)  14:15 14:10+1014:20+105 10m11266.636256mWCRKota, Rajasthan
32|--|GQLGurla  14:29+3014:30+321m--1272.053251mWCRSH 33, Rajasthan
33/==/KPTNKeshorai PatanXO  14:39+3114:40+331m--1280.073243mWCRSH 33, Rajasthan
34/==/AREArnetha  14:49+3414:50+351m--1290.961239mWCRShreepura, Rajasthan
35/==/KPZKaprenX  14:59+3515:00+401m--1300.167234mWCRKota - Lalsot Mega Highway, Rajasthan
36/==/GKBGhataka VaranaXO  15:09+3515:10+351m--1310.162232mWCRSH 33, Rajasthan
37/==/LBNLaban (2)O  15:19+3415:20+421m--1319.516225mWCRBundi, Rajasthan
38/==/LKELakheri (3)  15:49+2315:50+261m--1327.060228mWCRBundi, Rajasthan
39/==/IDGIndargarh Sumerganj Mandi (2)  16:01+2616:02+311m--1338.078247mWCRIndargarh, Rajasthan
40/==/AMLIAmli  16:12+3216:13+321m--1351.165233mWCRSawai Madhopur, Rajasthan
41/==/RWJRawania DungarX  16:20+3316:21 16:22+341 2m--1358.763266mWCRSawai Madhopur, Rajasthan
42/==/KTAKushtalaX  16:30+3616:31+381m--1367.222283mWCRNH 116, Rajasthan
43/==/SWMSawai Madhopur Junction (4)X  16:59 16:50+1717:00 16:55+181 5m--1374.332266mWCRSawai Madhopur, Rajasthan
44/==/RNTRanthambhore  17:09 17:14+2817:10 17:15+281m--1384.569248mWCRMDR 111, Rajasthan
45/==/MXLMokholi  17:19 17:23+2717:20 17:24+271m--1393.765242mWCRMDR 111, Rajasthan
46/==/MLZMalarnaX  17:29 17:34+2617:30 17:35+271m--1404.548236mWCRSawai Madhopur, Rajasthan
47/==/NMDNomodaX  17:39 17:44+2217:40 17:45+241m--1411.664238mWCRMDR 111, Rajasthan
48/==/NNWNarayanpur Tatwara (2)X  17:54+2517:55+261m--1421.371256mWCRSawai Madhopur, Rajasthan
49/==/LRULalpur Umri  18:04+2718:05+291m--1431.915276mWCRSH 1, Rajasthan
50/==/GGCGangapur City (3)X  18:30+418:35+75m--1438.255270mWCRGangapur, Rajasthan
51/==/COOChhoti Odai  18:49+3018:50+371m--1450.953257mWCRSH 25, Rajasthan
52/==/PDZPiliodaX  18:59+3619:00+371m--1458.854247mWCRSH 1, Rajasthan
53/==/SMBJShri Mahabirji (3)  19:15+2019:16+221m--1472.334240mWCRKarauli, Rajasthan
54/==/HANHindaun City (2)X  19:34+2319:35+281m--1482.557230mWCRKarauli, Rajasthan
55/==/FSPFateh SinghpuraX  19:49+4319:50+441m--1495.771223mWCRState Highway 1, Rajasthan
56/==/DYDumariya (2)•X  19:59+3620:00+441m--1506.314211mWCRState Highway 1, Rajasthan
57/==/BXNBayana Junction (3)  20:40+1920:50+1910m--1515.338198mWCRBayana, Rajasthan
58/==/KEVKela Devi  21:09+821:10+101m--1527.377193mWCRBharatpur, Rajasthan
59/==/PNGRPingora  21:17+1221:18+131m--1536.362191mWCRSH 1, Rajasthan
60/==/SWARSewarX  21:29+1321:30+211m--1547.620183mWCRBharatpur, Rajasthan
61/==/BTEBharatpur Junction (5)  22:00+222:10+310m41557.355174mWCRBharatpur, Rajasthan
62/==/DUMDhaurmui Jaghina  22:19+1122:20+111m--1565.640180mWCRState Highway 33, Rajasthan
63/==/JJAJajan Patti  22:32+922:33+101m--1573.642181mWCRState Highway 33, Rajasthan
64/==/MSRPMurhesi Rampur (2)  22:40 22:45+1822:41 22:46+181m--1582.014182mWCRSH 33, Uttar Pradesh
65/==/MTJMathura Junction (10)  23:25-1-51590.9-179mNCRMathura, Uttar Pradesh
Scroll to Top
Scroll to Bottom